Time;durP1;ratioP1;P1;durP2;ratioP2;P2;SDS_P1;SDS_P2;PMS_P1;PMS_P2;Temp;Humidity;BMP_temperature;BMP_pressure;BME280_temperature;BME280_humidity;BME280_pressure;Samples;Min_cycle;Max_cycle;Signal;HPM_P1;HPM_P2
2021/07/11 18:29:03;;;;;;;3.10;2.87;;;18.70;99.90;;;;;;5213343;23;20810;-82
2021/07/11 18:31:30;;;;;;;3.67;3.37;;;18.60;99.90;;;;;;4970221;28;21213;-85
2021/07/11 18:33:57;;;;;;;3.67;3.37;;;18.70;99.90;;;;;;4979245;28;20463;-88
2021/07/11 18:36:24;;;;;;;4.17;3.80;;;18.70;99.90;;;;;;4991166;28;20436;-85
2021/07/11 18:38:51;;;;;;;4.57;4.17;;;18.70;99.90;;;;;;4987992;28;20468;-84
2021/07/11 18:41:18;;;;;;;4.53;4.10;;;18.70;99.90;;;;;;4971394;28;20453;-84
2021/07/11 18:43:46;;;;;;;4.97;4.47;;;18.70;99.90;;;;;;4972675;28;20544;-85
2021/07/11 18:46:14;;;;;;;3.90;3.60;;;18.70;99.90;;;;;;4971751;28;20988;-80
2021/07/11 18:48:42;;;;;;;4.30;3.90;;;18.70;99.90;;;;;;4974221;28;20483;-84
2021/07/11 18:51:11;;;;;;;4.00;3.70;;;18.70;99.90;;;;;;4972842;28;20504;-84
2021/07/11 18:53:38;;;;;;;3.60;3.30;;;18.80;99.90;;;;;;4975254;28;20540;-80
2021/07/11 18:56:06;;;;;;;5.23;3.17;;;18.80;99.90;;;;;;4975717;28;20913;-84
2021/07/11 18:58:33;;;;;;;4.03;3.63;;;18.80;99.90;;;;;;4970667;28;20476;-83
2021/07/11 19:01:00;;;;;;;4.20;3.80;;;18.80;99.90;;;;;;4971883;28;20790;-86
2021/07/11 19:03:28;;;;;;;3.90;3.60;;;18.70;99.90;;;;;;4969394;28;20453;-87
2021/07/11 19:05:55;;;;;;;4.10;3.80;;;18.80;99.90;;;;;;4972225;28;20815;-85
2021/07/11 19:08:22;;;;;;;3.77;3.47;;;18.70;99.90;;;;;;4968241;28;20480;-82
2021/07/11 19:10:50;;;;;;;4.00;3.70;;;18.70;99.90;;;;;;4970442;28;20445;-84
2021/07/11 19:13:18;;;;;;;4.73;4.00;;;18.70;99.90;;;;;;4968534;28;20457;-83
2021/07/11 19:15:46;;;;;;;4.90;3.90;;;18.70;99.90;;;;;;4973156;28;20452;-81
2021/07/11 19:18:13;;;;;;;3.50;3.20;;;18.70;99.90;;;;;;4973632;28;20455;-83
2021/07/11 19:20:41;;;;;;;4.50;4.10;;;18.70;99.90;;;;;;4966900;28;20469;-82
2021/07/11 19:23:08;;;;;;;4.30;3.87;;;18.60;99.90;;;;;;4968690;28;20453;-84
2021/07/11 19:25:36;;;;;;;3.73;3.27;;;18.70;99.90;;;;;;4966822;28;20460;-82
2021/07/11 19:28:05;;;;;;;4.20;3.90;;;18.70;99.90;;;;;;4967313;28;21004;-81
2021/07/11 19:30:34;;;;;;;4.80;4.40;;;18.70;99.90;;;;;;4957117;28;22019;-85
2021/07/11 19:33:01;;;;;;;4.00;3.60;;;18.70;99.90;;;;;;4972079;28;20538;-80
2021/07/11 19:35:29;;;;;;;4.23;3.83;;;18.60;99.90;;;;;;4969303;28;20456;-84
2021/07/11 19:37:57;;;;;;;4.50;4.10;;;18.60;99.90;;;;;;4966614;28;20491;-83
2021/07/11 19:40:27;;;;;;;4.80;3.73;;;18.60;99.90;;;;;;4967917;28;20449;-83
2021/07/11 19:42:55;;;;;;;4.10;3.77;;;18.60;99.90;;;;;;4967143;28;20512;-82
2021/07/11 19:45:23;;;;;;;5.23;4.27;;;18.60;99.90;;;;;;4966819;28;20468;-84
2021/07/11 19:47:50;;;;;;;5.00;4.50;;;18.60;99.90;;;;;;4972873;28;20487;-81
2021/07/11 19:50:18;;;;;;;5.03;4.53;;;18.60;99.90;;;;;;4972598;28;20452;-81
2021/07/11 19:52:45;;;;;;;4.20;3.77;;;18.60;99.90;;;;;;4966450;28;20459;-86
2021/07/11 19:55:15;;;;;;;4.40;4.00;;;18.50;99.90;;;;;;4969854;28;20433;-85
2021/07/11 19:57:42;;;;;;;4.60;4.03;;;18.50;99.90;;;;;;4967386;28;20494;-84
2021/07/11 20:00:12;;;;;;;4.73;4.23;;;18.50;99.90;;;;;;4971942;28;20480;-83
2021/07/11 20:02:39;;;;;;;4.60;4.20;;;18.40;99.90;;;;;;4976893;28;20436;-81
2021/07/11 20:05:08;;;;;;;5.80;5.30;;;18.40;99.90;;;;;;4971874;28;20945;-84
2021/07/11 20:07:36;;;;;;;5.40;4.90;;;18.40;99.90;;;;;;4969220;28;20496;-85
2021/07/11 20:10:05;;;;;;;5.40;5.00;;;18.40;99.90;;;;;;4969234;28;20452;-86
2021/07/11 20:12:33;;;;;;;5.10;4.63;;;18.30;99.90;;;;;;4970961;28;20809;-83
2021/07/11 20:15:00;;;;;;;4.63;4.23;;;18.30;99.90;;;;;;4970821;28;20456;-88
2021/07/11 20:17:27;;;;;;;5.17;4.67;;;18.30;99.90;;;;;;4965974;28;20500;-83
2021/07/11 20:19:54;;;;;;;5.20;4.80;;;18.20;99.90;;;;;;4967911;28;20436;-80
2021/07/11 20:22:23;;;;;;;5.30;4.60;;;18.20;99.90;;;;;;4971601;28;20464;-83
2021/07/11 20:24:51;;;;;;;4.93;4.43;;;18.20;99.90;;;;;;4969980;28;20452;-81
2021/07/11 20:27:20;;;;;;;4.93;4.53;;;18.10;99.90;;;;;;4968740;28;20488;-80
2021/07/11 20:29:48;;;;;;;5.67;4.30;;;18.10;99.90;;;;;;4948225;28;20491;-83
2021/07/11 20:32:18;;;;;;;4.90;4.50;;;18.10;99.90;;;;;;4967269;28;20558;-83
2021/07/11 20:34:45;;;;;;;5.37;4.73;;;18.00;99.90;;;;;;4968822;28;20437;-87
2021/07/11 20:37:12;;;;;;;5.80;4.83;;;18.00;99.90;;;;;;4968025;28;20457;-80
2021/07/11 20:39:39;;;;;;;6.13;4.83;;;18.00;99.90;;;;;;4969994;28;20801;-84
2021/07/11 20:42:07;;;;;;;5.10;4.63;;;17.90;99.90;;;;;;4966360;28;20565;-83
2021/07/11 20:44:34;;;;;;;5.47;4.80;;;17.90;99.90;;;;;;4968335;28;20437;-84
2021/07/11 20:47:02;;;;;;;5.50;5.00;;;17.90;99.90;;;;;;4971554;28;20485;-82
2021/07/11 20:49:32;;;;;;;5.00;4.60;;;17.90;99.90;;;;;;4967706;28;20469;-84
2021/07/11 20:51:59;;;;;;;5.10;4.70;;;17.90;99.90;;;;;;4965887;28;20695;-82
2021/07/11 20:54:26;;;;;;;6.40;4.40;;;17.80;99.90;;;;;;4965330;28;20456;-81
2021/07/11 20:56:55;;;;;;;4.67;4.27;;;17.80;99.90;;;;;;4967134;28;20798;-87
2021/07/11 20:59:23;;;;;;;5.20;4.70;;;17.80;99.90;;;;;;4958938;28;20499;-81
2021/07/11 21:01:50;;;;;;;5.30;4.80;;;17.70;99.90;;;;;;4973143;28;20459;-84
2021/07/11 21:04:19;;;;;;;5.63;5.13;;;17.70;99.90;;;;;;4969045;28;20480;-83
2021/07/11 21:06:47;;;;;;;5.33;4.90;;;17.70;99.90;;;;;;4966734;28;20491;-81
2021/07/11 21:09:15;;;;;;;7.40;5.80;;;17.60;99.90;;;;;;4966396;28;20466;-82
2021/07/11 21:11:42;;;;;;;6.73;6.13;;;17.60;99.90;;;;;;4965655;28;20831;-81
2021/07/11 21:14:09;;;;;;;5.97;5.40;;;17.60;99.90;;;;;;4970845;28;20953;-82
2021/07/11 21:16:36;;;;;;;9.30;7.50;;;17.60;99.90;;;;;;4974505;28;20465;-81
2021/07/11 21:19:03;;;;;;;11.70;7.63;;;17.50;99.90;;;;;;4969962;28;21240;-85
2021/07/11 21:21:32;;;;;;;7.67;6.97;;;17.40;99.90;;;;;;4968446;28;20536;-82
2021/07/11 21:23:59;;;;;;;8.07;7.30;;;17.40;99.90;;;;;;4967977;28;20456;-85
2021/07/11 21:26:26;;;;;;;8.00;7.20;;;17.40;99.90;;;;;;4969659;28;21008;-83
2021/07/11 21:28:55;;;;;;;7.63;6.93;;;17.50;99.90;;;;;;4971189;28;20492;-83
2021/07/11 21:31:22;;;;;;;8.20;6.67;;;17.40;99.90;;;;;;4977640;28;20534;-83
2021/07/11 21:33:49;;;;;;;6.50;5.90;;;17.40;99.90;;;;;;4972659;28;20535;-84
2021/07/11 21:36:16;;;;;;;7.50;6.80;;;17.40;99.90;;;;;;4971970;28;20445;-82
2021/07/11 21:38:44;;;;;;;6.60;5.90;;;17.40;99.90;;;;;;4970982;28;20479;-80
2021/07/11 21:41:12;;;;;;;6.90;6.30;;;17.30;99.90;;;;;;4973504;28;20504;-85
2021/07/11 21:43:39;;;;;;;7.30;6.57;;;17.30;99.90;;;;;;4974433;28;20484;-84
2021/07/11 21:46:06;;;;;;;6.90;6.20;;;17.30;99.90;;;;;;4979569;28;20812;-83
2021/07/11 21:48:34;;;;;;;6.43;5.83;;;17.30;99.90;;;;;;4983659;28;20480;-81
2021/07/11 21:51:02;;;;;;;6.03;5.43;;;17.30;99.90;;;;;;4973184;28;20503;-82
2021/07/11 21:53:29;;;;;;;6.23;5.63;;;17.30;99.90;;;;;;4972909;28;20857;-80
2021/07/11 21:55:57;;;;;;;6.83;5.93;;;17.30;99.90;;;;;;4970785;28;20427;-83
2021/07/11 21:58:25;;;;;;;8.00;7.27;;;17.20;99.90;;;;;;4976217;28;20443;-85
2021/07/11 22:00:52;;;;;;;6.17;5.63;;;17.20;99.90;;;;;;4977901;28;20542;-81
2021/07/11 22:03:18;;;;;;;6.53;6.00;;;17.20;99.90;;;;;;4991070;28;20413;-84
2021/07/11 22:05:46;;;;;;;6.20;5.60;;;17.20;99.90;;;;;;4984867;28;20430;-80
2021/07/11 22:08:13;;;;;;;7.37;5.37;;;17.20;99.90;;;;;;4972837;28;20484;-80
2021/07/11 22:10:41;;;;;;;6.80;6.10;;;17.20;99.90;;;;;;4972113;28;20942;-80
2021/07/11 22:13:09;;;;;;;8.30;6.50;;;17.10;99.90;;;;;;4973956;28;20458;-82
2021/07/11 22:15:36;;;;;;;7.43;6.60;;;17.10;99.90;;;;;;4976292;28;20929;-83
2021/07/11 22:18:03;;;;;;;8.63;7.73;;;17.10;99.90;;;;;;4977325;28;21111;-82
2021/07/11 22:20:31;;;;;;;9.50;8.30;;;17.00;99.90;;;;;;4990049;28;20446;-82
2021/07/11 22:22:58;;;;;;;10.07;9.07;;;17.00;99.90;;;;;;4981845;28;20437;-83
2021/07/11 22:25:25;;;;;;;9.93;8.27;;;17.00;99.90;;;;;;4971107;28;20460;-80
2021/07/11 22:27:52;;;;;;;10.33;7.90;;;16.90;99.90;;;;;;4971284;28;20513;-83
2021/07/11 22:30:23;;;;;;;12.20;9.00;;;16.90;99.90;;;;;;4970604;28;20456;-83
2021/07/11 22:32:51;;;;;;;8.90;8.00;;;16.90;99.90;;;;;;4972866;28;20464;-82
2021/07/11 22:35:19;;;;;;;9.03;8.20;;;16.90;99.90;;;;;;4973149;28;20779;-80
2021/07/11 22:37:47;;;;;;;8.50;7.70;;;16.90;99.90;;;;;;4975175;28;20466;-82
2021/07/11 22:40:15;;;;;;;8.37;7.50;;;16.90;99.90;;;;;;4977644;28;20450;-80
2021/07/11 22:42:42;;;;;;;8.77;7.87;;;16.90;99.90;;;;;;4971815;28;20444;-81
2021/07/11 22:45:11;;;;;;;9.07;8.17;;;16.90;99.90;;;;;;4970609;28;20539;-80
2021/07/11 22:47:41;;;;;;;8.70;7.80;;;16.90;99.90;;;;;;4971970;28;20861;-83
2021/07/11 22:50:10;;;;;;;8.57;7.67;;;16.90;99.90;;;;;;4969766;28;20489;-81
2021/07/11 22:52:37;;;;;;;8.00;7.20;;;16.90;99.90;;;;;;4973205;28;20794;-80
2021/07/11 22:55:05;;;;;;;8.03;7.23;;;16.90;99.90;;;;;;4971503;28;20959;-82
2021/07/11 22:57:32;;;;;;;6.90;6.23;;;16.90;99.90;;;;;;4972738;28;20853;-83
2021/07/11 22:59:59;;;;;;;7.47;6.77;;;16.90;99.90;;;;;;4976354;28;20414;-82
2021/07/11 23:02:28;;;;;;;7.83;7.13;;;16.90;99.90;;;;;;4976562;28;20450;-80
2021/07/11 23:05:00;;;;;;;8.43;7.63;;;16.90;99.90;;;;;;4966760;28;20446;-80
2021/07/11 23:07:27;;;;;;;7.83;7.13;;;16.80;99.90;;;;;;4961474;28;20505;-85
2021/07/11 23:09:54;;;;;;;8.37;7.47;;;16.80;99.90;;;;;;4971784;28;20433;-80
2021/07/11 23:12:21;;;;;;;8.37;7.37;;;16.80;99.90;;;;;;4970132;28;20453;-83
2021/07/11 23:14:48;;;;;;;8.87;7.97;;;16.80;99.90;;;;;;4973622;28;20883;-83
2021/07/11 23:17:14;;;;;;;8.57;7.60;;;16.80;99.90;;;;;;4974002;28;20430;-82
2021/07/11 23:19:41;;;;;;;8.87;7.80;;;16.70;99.90;;;;;;4974491;28;20464;-81
2021/07/11 23:22:10;;;;;;;8.33;7.37;;;16.70;99.90;;;;;;4977651;28;20434;-81
2021/07/11 23:24:37;;;;;;;9.00;8.10;;;16.70;99.90;;;;;;4968393;28;20462;-81
2021/07/11 23:27:04;;;;;;;9.10;8.30;;;16.70;99.90;;;;;;4968771;28;20484;-80
2021/07/11 23:29:32;;;;;;;8.53;7.73;;;16.70;99.90;;;;;;4971277;28;20496;-84
2021/07/11 23:31:59;;;;;;;10.13;9.13;;;16.70;99.90;;;;;;4963404;28;20525;-80
2021/07/11 23:34:25;;;;;;;10.50;9.13;;;16.70;99.90;;;;;;4972723;28;20453;-80
2021/07/11 23:36:53;;;;;;;9.93;8.57;;;16.60;99.90;;;;;;4974907;28;20458;-83
2021/07/11 23:39:21;;;;;;;9.60;8.70;;;16.60;99.90;;;;;;4970523;28;20450;-84
2021/07/11 23:41:48;;;;;;;9.47;8.60;;;16.60;99.90;;;;;;4970663;28;20443;-81
2021/07/11 23:44:14;;;;;;;12.80;9.53;;;16.60;99.90;;;;;;4968619;28;20465;-82
2021/07/11 23:46:41;;;;;;;9.87;8.70;;;16.60;99.90;;;;;;4972462;28;20941;-82
2021/07/11 23:49:09;;;;;;;10.33;9.33;;;16.60;99.90;;;;;;4975572;28;20463;-81
2021/07/11 23:51:35;;;;;;;10.33;9.37;;;16.60;99.90;;;;;;4985514;28;20415;-81
2021/07/11 23:54:02;;;;;;;10.27;8.73;;;16.60;99.90;;;;;;4983153;28;20472;-82
2021/07/11 23:56:31;;;;;;;9.30;8.50;;;16.60;99.90;;;;;;4970361;28;20805;-83
2021/07/11 23:58:58;;;;;;;9.20;8.30;;;16.60;99.90;;;;;;4970629;28;20443;-85
